Thunder radar more information blitzortung!


Radar de pluja more information rain snow radar


Visita la nostra xarxa de llocs de meteo:

Template documentation
and downloads

And another site



No particular awareness of the weather is required.    There are no Weather-warnings

Pagina Historial Weather Underground text

Diari Resum Juny 4, 2017 Unitats:  Imperial    Mètric   Tant
« Previous Dia
SegĂźent Dia »
Diari Setmana Mensual Anual Personalitzada
  Maxima: Minima: Media:
Temperatura: 76.1 °F 59 °F 68.9 °F
Punt de rosada: 59.5 °F 50.5 °F 56.8 °F
Humitat: 89 % 51 % 67 %
Wind Speed: 8.1 mph 0 mph 2.3 mph
RĂ fegues de vent: 8.1 mph - -
Vent:- - South
Pression baro: 30.1 in 29.9 in -
Precipitacions: 0.12 in    
Historical Graphs
 
 
Dades de taula per Juny 4, 2017
Temps Temperatura Punt de rosada Pression baro Vent Wind Speed RĂ fegues de vent Humitat Rainfall Rate (Hourly)
00:00 68.2 °F 50.9 °F 30 in ENE 2.9 mph 2.9 mph 54 % 0 in
00:05 67.8 °F 50.5 °F 30 in NE 6.9 mph 6.9 mph 54 % 0 in
00:10 63.1 °F 54 °F 30 in NNE 2 mph 3 mph 72 % 0 in
00:20 63 °F 53.4 °F 30 in North 1 mph 3 mph 71 % 0 in
00:30 62.8 °F 53.2 °F 30 in WNW 1 mph 2 mph 71 % 0 in
00:40 62.4 °F 53.6 °F 30 in WSW 1 mph 2 mph 73 % 0 in
00:50 62.4 °F 53.6 °F 30 in SW 1 mph 2 mph 73 % 0 in
01:00 62.4 °F 53.6 °F 30 in Calm     73 % 0 in
01:10 62.4 °F 53.6 °F 30 in WSW 1 mph 2 mph 73 % 0 in
01:20 62.2 °F 53.8 °F 30 in WSW 1 mph 2 mph 74 % 0 in
01:30 62.1 °F 54 °F 30 in WSW 1 mph 2 mph 75 % 0 in
01:40 61.9 °F 54 °F 30 in WSW 1 mph 2 mph 75 % 0 in
01:50 61.9 °F 54.1 °F 30 in WSW 2 mph 2 mph 76 % 0 in
02:00 62.2 °F 54.9 °F 30 in WSW 1 mph 2 mph 77 % 0 in
02:10 62.6 °F 54.9 °F 30 in Calm   2 mph 76 % 0 in
02:20 62.6 °F 54.9 °F 30 in Calm   1 mph 76 % 0 in
02:30 63 °F 55.2 °F 30 in Calm   2 mph 76 % 0 in
02:40 63.1 °F 55 °F 30 in WSW 1 mph 1 mph 75 % 0 in
02:50 63.5 °F 55.4 °F 30 in Calm   2 mph 75 % 0 in
03:00 63.7 °F 55.6 °F 30 in SW 1 mph 2 mph 75 % 0 in
03:20 64.9 °F 56.5 °F 30 in Calm   1 mph 74 % 0 in
03:30 65.7 °F 56.8 °F 30 in Calm   2 mph 73 % 0 in
03:40 65.7 °F 56.8 °F 30 in NW 2 mph 2 mph 73 % 0 in
03:50 65.5 °F 55.8 °F 30 in NNE 2 mph 3 mph 71 % 0 in
04:00 66.2 °F 55.8 °F 30 in NNE 1 mph 1 mph 69 % 0 in
04:10 66.2 °F 56.1 °F 30 in NE 1 mph 2 mph 70 % 0 in
04:20 66.6 °F 56.8 °F 30.1 in ENE 1 mph 2 mph 71 % 0 in
04:30 67.1 °F 57.4 °F 30.1 in Calm   2 mph 71 % 0 in
04:40 67.6 °F 57.6 °F 30 in SW 1 mph 2 mph 70 % 0 in
04:50 67.3 °F 57.6 °F 30 in ESE 3 mph 4 mph 71 % 0 in
05:00 67.6 °F 57 °F 30 in East 1 mph 2 mph 69 % 0 in
05:10 67.8 °F 56.5 °F 30 in NE 3 mph 4 mph 67 % 0 in
05:20 68 °F 56.1 °F 30 in NE 3 mph 4 mph 66 % 0 in
05:30 68.4 °F 56.7 °F 30 in ENE 2 mph 4 mph 66 % 0 in
05:40 68.7 °F 56.8 °F 30.1 in SW 1 mph 3 mph 66 % 0 in
05:50 68.7 °F 56.8 °F 30 in WSW 2 mph 4 mph 66 % 0 in
06:00 68.7 °F 56.5 °F 30 in West 3 mph 8 mph 65 % 0 in
06:10 69.6 °F 57.4 °F 30.1 in WNW 2 mph 5 mph 65 % 0 in
06:20 70.7 °F 57.9 °F 30.1 in West 2 mph 4 mph 64 % 0 in
06:30 72.7 °F 58.8 °F 30.1 in West 2 mph 3 mph 62 % 0 in
06:35 72.7 °F 57.9 °F 30 in West 2 mph 5 mph 60 % 0 in
11:36 72.9 °F 58.3 °F 30 in ESE 5.8 mph 5.8 mph 60 % 0 in
11:41 73 °F 57.9 °F 30 in WNW 5.8 mph 5.8 mph 59 % 0 in
11:46 73.6 °F 58.5 °F 30 in NNE 3.6 mph 3.6 mph 59 % 0 in
11:51 73 °F 57.4 °F 30 in East 3.5 mph 3.5 mph 58 % 0 in
11:56 73 °F 57.4 °F 30 in NNE 4.6 mph 4.6 mph 58 % 0 in
12:01 73.6 °F 57.9 °F 30 in WNW 2.3 mph 2.3 mph 58 % 0 in
12:06 73.9 °F 58.3 °F 30 in NW 3.5 mph 3.5 mph 58 % 0 in
12:11 74.3 °F 58.1 °F 30 in NNE 3.5 mph 3.5 mph 57 % 0 in
12:16 73.2 °F 56.7 °F 30 in NE 5.8 mph 5.8 mph 56 % 0 in
12:21 72.9 °F 56.7 °F 30 in ENE 4.7 mph 4.7 mph 57 % 0 in
12:26 73.9 °F 57.4 °F 30 in East 2.3 mph 2.3 mph 56 % 0 in
12:31 74.1 °F 56.8 °F 30 in NW 4.6 mph 4.6 mph 55 % 0 in
12:36 73.6 °F 56.5 °F 30 in WSW 3.5 mph 3.5 mph 55 % 0 in
12:41 73.2 °F 56.7 °F 30 in NNE 4.6 mph 4.6 mph 56 % 0 in
12:45 64.8 °F 59.2 °F 29.9 in WNW 3 mph 8 mph 82 % 0 in
12:46 73.6 °F 56.8 °F 30 in NE 3.5 mph 3.5 mph 56 % 0 in
12:51 73.8 °F 56.7 °F 30 in ENE 4.6 mph 4.6 mph 55 % 0 in
12:56 74.5 °F 57.4 °F 30 in NNE 3.5 mph 3.5 mph 55 % 0 in
13:01 74.5 °F 57.4 °F 30 in East 4.6 mph 4.6 mph 55 % 0 in
13:06 74.7 °F 56.8 °F 30 in NNE 5.8 mph 5.8 mph 54 % 0 in
13:11 75.6 °F 57.2 °F 30 in NW 4.6 mph 4.6 mph 53 % 0 in
13:16 74.7 °F 56.5 °F 30 in East 2.3 mph 2.6 mph 53 % 0 in
13:21 74.3 °F 56.1 °F 30 in NE 3.5 mph 3.5 mph 53 % 0 in
13:26 73.8 °F 55 °F 30 in NNW 4.3 mph 4.3 mph 52 % 0 in
13:31 73.9 °F 55.8 °F 30 in NE 2.3 mph 2.3 mph 53 % 0 in
13:36 75.4 °F 56.5 °F 30 in SSW 2 mph 2 mph 52 % 0 in
13:41 76.1 °F 57.7 °F 30 in WSW 3.5 mph 3.5 mph 53 % 0 in
13:46 75.6 °F 56.7 °F 30 in SSW 5.8 mph 5.8 mph 52 % 0 in
13:51 75.2 °F 56.8 °F 30 in West 4.6 mph 4.6 mph 53 % 0 in
13:56 75 °F 56.7 °F 30 in West 3.5 mph 3.5 mph 53 % 0 in
14:01 74.8 °F 56.7 °F 30 in SW 3.5 mph 3.5 mph 53 % 0 in
14:06 74.8 °F 55.9 °F 30 in South 3.5 mph 3.5 mph 52 % 0 in
14:11 75.4 °F 55.9 °F 30 in WSW 4.6 mph 4.6 mph 51 % 0 in
14:16 75.2 °F 55.8 °F 30 in NW 4 mph 4 mph 51 % 0 in
14:18 75.4 °F 55.9 °F 30 in WSW 4.6 mph 4.6 mph 51 % 0 in
14:23 75.4 °F 55.9 °F 30 in West 2.4 mph 2.4 mph 51 % 0 in
14:28 75.4 °F 55.9 °F 30 in West 2.4 mph 2.4 mph 51 % 0 in
14:33 75.4 °F 55.9 °F 30 in West 2.4 mph 2.4 mph 51 % 0 in
14:38 75.4 °F 55.9 °F 30 in West 2.4 mph 2.4 mph 51 % 0 in
14:43 75.4 °F 55.9 °F 30 in West 2.4 mph 2.4 mph 51 % 0 in
14:48 75.4 °F 55.9 °F 30 in West 2.4 mph 2.4 mph 51 % 0 in
14:53 75.4 °F 55.9 °F 30 in West 2.4 mph 2.4 mph 51 % 0 in
14:58 75.4 °F 55.9 °F 30 in West 2.4 mph 2.4 mph 51 % 0 in
15:03 75.4 °F 55.9 °F 30 in West 2.4 mph 2.4 mph 51 % 0 in
15:08 75.4 °F 55.9 °F 30 in West 2.4 mph 2.4 mph 51 % 0 in
15:13 75.4 °F 55.9 °F 30 in West 2.4 mph 2.4 mph 51 % 0 in
15:18 75.4 °F 55.9 °F 30 in West 2.4 mph 2.4 mph 51 % 0 in
15:23 75.4 °F 55.9 °F 30 in West 2.4 mph 2.4 mph 51 % 0 in
15:28 75.4 °F 55.9 °F 30 in West 2.4 mph 2.4 mph 51 % 0 in
15:33 75.4 °F 55.9 °F 30 in West 2.4 mph 2.4 mph 51 % 0 in
15:38 75.4 °F 55.9 °F 30 in West 2.4 mph 2.4 mph 51 % 0 in
15:43 75.4 °F 55.9 °F 30 in West 2.4 mph 2.4 mph 51 % 0 in
15:48 75.4 °F 55.9 °F 30 in West 2.4 mph 2.4 mph 51 % 0 in
15:53 75.4 °F 55.9 °F 30 in West 2.4 mph 2.4 mph 51 % 0 in
15:58 75.4 °F 55.9 °F 30 in West 2.4 mph 2.4 mph 51 % 0 in
16:03 75.4 °F 55.9 °F 30 in West 2.4 mph 2.4 mph 51 % 0 in
16:08 75.4 °F 55.9 °F 30 in West 2.4 mph 2.4 mph 51 % 0 in
16:13 75.4 °F 55.9 °F 30 in West 2.4 mph 2.4 mph 51 % 0 in
16:18 75.4 °F 55.9 °F 30 in West 2.4 mph 2.4 mph 51 % 0 in
16:23 75.4 °F 55.9 °F 30 in West 2.4 mph 2.4 mph 51 % 0 in
16:28 75.4 °F 55.9 °F 30 in West 2.4 mph 2.4 mph 51 % 0 in
16:33 75.4 °F 55.9 °F 30 in West 2.4 mph 2.4 mph 51 % 0 in
16:38 75.4 °F 55.9 °F 30 in West 2.4 mph 2.4 mph 51 % 0 in
16:43 75.4 °F 55.9 °F 30 in West 2.4 mph 2.4 mph 51 % 0 in
16:48 75.4 °F 55.9 °F 30 in West 2.4 mph 2.4 mph 51 % 0 in
16:53 75.4 °F 55.9 °F 30 in West 2.4 mph 2.4 mph 51 % 0 in
16:58 75.4 °F 55.9 °F 30 in West 2.4 mph 2.4 mph 51 % 0 in
17:03 75.4 °F 55.9 °F 30 in West 2.4 mph 2.4 mph 51 % 0 in
17:08 75.4 °F 55.9 °F 30 in West 2.4 mph 2.4 mph 51 % 0 in
17:13 75.4 °F 55.9 °F 30 in West 2.4 mph 2.4 mph 51 % 0 in
17:18 75.4 °F 55.9 °F 30 in West 2.4 mph 2.4 mph 51 % 0 in
17:23 75.4 °F 55.9 °F 30 in West 2.4 mph 2.4 mph 51 % 0 in
17:28 75.4 °F 55.9 °F 30 in West 2.4 mph 2.4 mph 51 % 0 in
17:33 75.4 °F 55.9 °F 30 in West 2.4 mph 2.4 mph 51 % 0 in
17:38 75.4 °F 55.9 °F 30 in West 2.4 mph 2.4 mph 51 % 0 in
17:45 64.8 °F 59.2 °F 29.9 in WNW 8.1 mph 8.1 mph 82 % 0 in
17:50 64.9 °F 59 °F 29.9 in NNE 5.8 mph 5.8 mph 81 % 0.12 in
17:55 65.1 °F 59.2 °F 29.9 in ENE 4.6 mph 4.6 mph 81 % 0.12 in
18:00 65.3 °F 59.4 °F 29.9 in ENE 4.6 mph 4.6 mph 81 % 0.12 in
18:05 65.3 °F 59 °F 29.9 in NE 5.8 mph 5.8 mph 80 % 0.12 in
18:10 65.5 °F 58.8 °F 29.9 in NNE 3.5 mph 3.5 mph 79 % 0.12 in
18:11 65.5 °F 58.8 °F 29.9 in NNE 3.5 mph 3.5 mph 79 % 0.12 in
18:16 65.8 °F 59.5 °F 29.9 in East 4 mph 4 mph 80 % 0.12 in
18:21 65.7 °F 59 °F 29.9 in NNE 5.8 mph 5.8 mph 79 % 0.12 in
18:26 65.5 °F 58.5 °F 29.9 in NNE 6.9 mph 6.9 mph 78 % 0.12 in
18:31 66.4 °F 59.4 °F 29.9 in NNW 2.3 mph 2.3 mph 78 % 0.12 in
18:36 66.9 °F 59.5 °F 29.9 in North 3.8 mph 3.8 mph 77 % 0.12 in
18:41 67.3 °F 59.5 °F 29.9 in ENE 3.5 mph 3.5 mph 76 % 0.12 in
18:46 67.3 °F 59.2 °F 29.9 in NE 3.3 mph 3.3 mph 75 % 0.12 in
18:51 67.5 °F 58.8 °F 29.9 in NNE 3.6 mph 3.6 mph 74 % 0 in
18:56 67.3 °F 58.3 °F 29.9 in NE 3.5 mph 3.5 mph 73 % 0 in
19:01 67.6 °F 58.6 °F 29.9 in NE 2.3 mph 2.3 mph 73 % 0 in
19:06 67.6 °F 58.6 °F 29.9 in NE 3.5 mph 3.5 mph 73 % 0 in
19:11 67.6 °F 58.6 °F 29.9 in NNE 3.5 mph 3.5 mph 73 % 0 in
19:16 67.6 °F 58.3 °F 29.9 in East 2 mph 2 mph 72 % 0 in
19:21 67.6 °F 58.3 °F 29.9 in NNE 2.3 mph 2.3 mph 72 % 0 in
19:26 67.3 °F 57.9 °F 29.9 in ENE 3.5 mph 3.5 mph 72 % 0 in
19:31 67.3 °F 57.9 °F 29.9 in NNE 3.5 mph 3.5 mph 72 % 0 in
19:36 67.3 °F 57.9 °F 29.9 in ENE 3.1 mph 3.1 mph 72 % 0 in
19:41 67.6 °F 58.6 °F 29.9 in NNE 1.2 mph 1.2 mph 73 % 0 in
19:46 67.6 °F 58.3 °F 29.9 in NE 2.3 mph 2.3 mph 72 % 0 in
19:51 67.5 °F 58.1 °F 29.9 in North 2.3 mph 2.3 mph 72 % 0 in
19:56 67.5 °F 58.1 °F 29.9 in WNW 1.2 mph   72 % 0 in
20:01 67.6 °F 58.3 °F 29.9 in ENE 1.2 mph   72 % 0 in
20:06 67.6 °F 58.3 °F 29.9 in ENE 1.6 mph 1.6 mph 72 % 0 in
20:11 67.6 °F 58.3 °F 29.9 in ENE 1.6 mph 1.6 mph 72 % 0 in
20:16 67.5 °F 58.1 °F 29.9 in East 3.5 mph 3.5 mph 72 % 0 in
20:21 67.3 °F 57.9 °F 29.9 in East 1.2 mph   72 % 0 in
20:26 67.5 °F 58.1 °F 29.9 in Calm     72 % 0 in
20:31 67.6 °F 58.3 °F 29.9 in Calm     72 % 0 in
20:36 67.5 °F 58.5 °F 29.9 in SSE 2.3 mph 2.3 mph 73 % 0 in
20:41 67.5 °F 58.5 °F 29.9 in WSW 1.2 mph 1.2 mph 73 % 0 in
20:46 67.5 °F 58.5 °F 29.9 in WSW 2.3 mph 2.3 mph 73 % 0 in
20:51 67.3 °F 58.6 °F 29.9 in WSW 2.3 mph 2.3 mph 74 % 0 in
20:56 67.1 °F 58.5 °F 29.9 in NE 0.9 mph   74 % 0 in
21:01 66.7 °F 58.3 °F 29.9 in NE 2.3 mph 2.3 mph 74 % 0 in
21:06 66.6 °F 57.9 °F 29.9 in Calm     74 % 0 in
21:11 66.4 °F 57.6 °F 29.9 in ENE 2.3 mph 2.3 mph 73 % 0 in
21:16 66.4 °F 57.6 °F 29.9 in NE 1.2 mph 1.2 mph 73 % 0 in
21:21 66.2 °F 57.4 °F 29.9 in NNE 3.1 mph 3.1 mph 73 % 0 in
21:26 66.2 °F 57.4 °F 29.9 in NNE 1.2 mph 1.2 mph 73 % 0 in
21:31 66 °F 57.6 °F 29.9 in ENE 1.2 mph   74 % 0 in
21:36 66 °F 57.6 °F 29.9 in Calm     74 % 0 in
21:41 65.8 °F 57.4 °F 29.9 in ENE 1.2 mph 1.2 mph 74 % 0 in
21:46 65.8 °F 57.4 °F 29.9 in NE 2.3 mph 2.3 mph 74 % 0 in
21:51 65.8 °F 57.4 °F 29.9 in Calm     74 % 0 in
21:56 65.8 °F 57.7 °F 29.9 in Calm     75 % 0 in
22:01 65.7 °F 57.6 °F 29.9 in NE 1.2 mph 1.2 mph 75 % 0 in
22:06 65.7 °F 57.6 °F 29.9 in Calm     75 % 0 in
22:10 61.5 °F 56.7 °F 29.9 in Calm     84 % 0 in
22:11 65.5 °F 57.4 °F 29.9 in NNE 1.2 mph   75 % 0 in
22:16 65.5 °F 57.4 °F 29.9 in NE 2.3 mph 2.3 mph 75 % 0 in
22:20 61.7 °F 57 °F 29.9 in Calm   1 mph 85 % 0 in
22:21 65.5 °F 57.7 °F 29.9 in NNE 2.3 mph 2.3 mph 76 % 0 in
22:26 65.5 °F 57.7 °F 29.9 in NE 2 mph 2 mph 76 % 0 in
22:30 61.3 °F 56.8 °F 29.9 in WNW 1 mph 2 mph 85 % 0 in
22:31 65.3 °F 57.6 °F 29.9 in NNE 1.2 mph   76 % 0 in
22:36 65.3 °F 57.6 °F 29.9 in Calm     76 % 0 in
22:40 61 °F 56.5 °F 29.9 in West 2 mph 3 mph 85 % 0.04 in
22:41 65.3 °F 57.9 °F 29.9 in Calm     77 % 0 in
22:46 65.3 °F 57.9 °F 29.9 in Calm     77 % 0 in
22:50 60.6 °F 56.5 °F 29.9 in WSW 2 mph 2 mph 86 % 0.04 in
22:51 65.1 °F 57.7 °F 29.9 in Calm     77 % 0 in
22:56 65.3 °F 57.9 °F 29.9 in NNW 1.2 mph 1.2 mph 77 % 0 in
23:00 60.3 °F 56.1 °F 29.9 in SW 2 mph 2 mph 86 % 0.04 in
23:01 65.1 °F 57.7 °F 29.9 in NNE 1.2 mph   77 % 0 in
23:06 65.3 °F 57.9 °F 29.9 in WNW 0.9 mph   77 % 0 in
23:10 60.1 °F 56.1 °F 29.9 in SW 1 mph 2 mph 87 % 0.04 in
23:11 65.3 °F 57.9 °F 29.9 in Calm     77 % 0 in
23:16 65.3 °F 57.9 °F 29.9 in NNE 1.2 mph 1.2 mph 77 % 0 in
23:20 59.9 °F 55.9 °F 29.9 in Calm   2 mph 87 % 0 in
23:21 65.3 °F 57.9 °F 29.9 in NE 2.6 mph   77 % 0 in
23:26 65.3 °F 57.9 °F 29.9 in SW 1.2 mph   77 % 0 in
23:30 59.7 °F 56.1 °F 29.9 in Calm   1 mph 88 % 0 in
23:31 65.5 °F 58.1 °F 29.9 in WSW 1.2 mph 1.2 mph 77 % 0 in
23:36 65.1 °F 58.1 °F 29.9 in SW 1.2 mph 1.2 mph 78 % 0 in
23:40 59.4 °F 56.1 °F 29.9 in Calm   2 mph 89 % 0.05 in
23:41 64.8 °F 58.1 °F 29.9 in SW 1.6 mph   79 % 0 in
23:46 64.8 °F 58.1 °F 29.9 in Calm     79 % 0 in
23:50 59 °F 55.4 °F 29.9 in SW 2 mph 3 mph 88 % 0.05 in
23:51 64.6 °F 58.3 °F 29.9 in Calm     80 % 0 in
23:56 64.6 °F 58.3 °F 29.9 in Calm     80 % 0 in
Meteo Sesrovires
Elogis d' Weather Underground - 3.5 mb

Guio original per  Jim McMurry - jmcmurry@mwt.net Adaptat per a la plantilla per  Wim van der Kuil - Leuven-Template.eu

Trobareu la nostra informacio del temps tambe a:

Weather Underground

AWEKAS